EWG4236 LKPR-ESSA
Flight info
| Callsign | EWG4236 |
|---|---|
| Flight time | 1h 34m |
| Altitude | 38000 |
| Route | VENOX DCT DEKOV Y621 GARKI DCT POGAB DCT RENKI/N0451F370 L132 BODLA DCT GORPI DCT ARMOD Z228 NILUG |
| Aircraft | A320/M-SDE3FGHIRWY/LB1 |
Departure
| Time | 2026-05-07 21:05 |
|---|---|
| Airport | Václav Havel Airport Prague (LKPR) |
Arrival
| Time | 2026-05-07 22:40 |
|---|---|
| Airport | Stockholm-Arlanda Airport (ESSA) |
| Time | Latitude | Longitude | Altitude | Speed | Heading |
|---|---|---|---|---|---|
| 2026-05-07 20:34 | 50.10591 | 14.26272 | 1185 ft | 0 kts | 28° |
| 2026-05-07 20:53 | 50.10583 | 14.26265 | 1185 ft | 2 kts | 36° |
| 2026-05-07 20:53 | 50.10569 | 14.26250 | 1185 ft | 2 kts | 46° |
| 2026-05-07 20:54 | 50.10558 | 14.26231 | 1186 ft | 2 kts | 59° |
| 2026-05-07 20:54 | 50.10551 | 14.26208 | 1186 ft | 2 kts | 80° |
| 2026-05-07 20:54 | 50.10550 | 14.26182 | 1187 ft | 2 kts | 100° |
| 2026-05-07 20:54 | 50.10554 | 14.26157 | 1186 ft | 2 kts | 115° |
| 2026-05-07 20:55 | 50.10558 | 14.26144 | 1186 ft | 1 kts | 120° |
| 2026-05-07 20:55 | 50.10559 | 14.26144 | 1186 ft | 0 kts | 120° |
| 2026-05-07 20:56 | 50.10542 | 14.26196 | 1187 ft | 11 kts | 110° |
| 2026-05-07 20:56 | 50.10513 | 14.26299 | 1187 ft | 9 kts | 121° |
| 2026-05-07 20:57 | 50.10482 | 14.26370 | 1188 ft | 6 kts | 126° |
| 2026-05-07 20:57 | 50.10459 | 14.26418 | 1190 ft | 9 kts | 126° |
| 2026-05-07 20:57 | 50.10413 | 14.26512 | 1191 ft | 11 kts | 131° |
| 2026-05-07 20:57 | 50.10366 | 14.26610 | 1193 ft | 11 kts | 124° |
| 2026-05-07 20:58 | 50.10332 | 14.26685 | 1195 ft | 9 kts | 126° |
| 2026-05-07 20:58 | 50.10299 | 14.26681 | 1201 ft | 7 kts | 213° |
| 2026-05-07 20:58 | 50.10213 | 14.26613 | 1201 ft | 11 kts | 175° |
| 2026-05-07 20:58 | 50.10151 | 14.26699 | 1204 ft | 11 kts | 127° |
| 2026-05-07 20:59 | 50.10112 | 14.26779 | 1206 ft | 7 kts | 127° |
| 2026-05-07 20:59 | 50.10079 | 14.26846 | 1207 ft | 12 kts | 127° |
| 2026-05-07 20:59 | 50.10027 | 14.26955 | 1209 ft | 12 kts | 126° |
| 2026-05-07 20:59 | 50.09978 | 14.27055 | 1209 ft | 12 kts | 128° |
| 2026-05-07 21:00 | 50.09924 | 14.27162 | 1211 ft | 13 kts | 127° |
| 2026-05-07 21:00 | 50.09852 | 14.27312 | 1211 ft | 20 kts | 131° |
| 2026-05-07 21:00 | 50.09751 | 14.27468 | 1214 ft | 20 kts | 135° |
| 2026-05-07 21:00 | 50.09657 | 14.27614 | 1218 ft | 17 kts | 135° |
| 2026-05-07 21:01 | 50.09587 | 14.27720 | 1223 ft | 11 kts | 136° |
| 2026-05-07 21:01 | 50.09524 | 14.27815 | 1227 ft | 17 kts | 135° |
| 2026-05-07 21:01 | 50.09445 | 14.27936 | 1233 ft | 14 kts | 133° |
| 2026-05-07 21:01 | 50.09380 | 14.28038 | 1237 ft | 13 kts | 136° |
| 2026-05-07 21:02 | 50.09308 | 14.28149 | 1243 ft | 15 kts | 136° |
| 2026-05-07 21:02 | 50.09241 | 14.28251 | 1246 ft | 13 kts | 136° |
| 2026-05-07 21:02 | 50.09204 | 14.28284 | 1246 ft | 2 kts | 165° |
| 2026-05-07 21:02 | 50.09191 | 14.28286 | 1242 ft | 2 kts | 176° |
| 2026-05-07 21:03 | 50.09188 | 14.28286 | 1243 ft | 0 kts | 179° |
| 2026-05-07 21:03 | 50.09159 | 14.28276 | 1250 ft | 13 kts | 203° |
| 2026-05-07 21:03 | 50.09099 | 14.28187 | 1241 ft | 12 kts | 232° |
| 2026-05-07 21:04 | 50.09088 | 14.28070 | 1241 ft | 8 kts | 306° |
| 2026-05-07 21:04 | 50.09090 | 14.28068 | 1240 ft | 0 kts | 310° |
| 2026-05-07 21:04 | 50.09103 | 14.28044 | 1247 ft | 16 kts | 311° |
| 2026-05-07 21:05 | 50.09338 | 14.27563 | 1230 ft | 92 kts | 307° |
| 2026-05-07 21:05 | 50.09852 | 14.26506 | 1203 ft | 149 kts | 307° |
| 2026-05-07 21:05 | 50.10503 | 14.25124 | 1648 ft | 159 kts | 309° |
| 2026-05-07 21:05 | 50.11144 | 14.23762 | 2533 ft | 153 kts | 308° |
| 2026-05-07 21:06 | 50.11804 | 14.22398 | 3067 ft | 166 kts | 308° |
| 2026-05-07 21:06 | 50.12547 | 14.20876 | 3398 ft | 187 kts | 308° |
| 2026-05-07 21:06 | 50.13387 | 14.19155 | 3747 ft | 210 kts | 307° |
| 2026-05-07 21:06 | 50.14289 | 14.17293 | 4468 ft | 218 kts | 306° |
| 2026-05-07 21:07 | 50.15207 | 14.15388 | 5322 ft | 221 kts | 306° |
| 2026-05-07 21:07 | 50.16140 | 14.13456 | 6154 ft | 225 kts | 306° |
| 2026-05-07 21:07 | 50.17087 | 14.11486 | 6965 ft | 228 kts | 306° |
| 2026-05-07 21:07 | 50.18045 | 14.09487 | 7767 ft | 232 kts | 306° |
| 2026-05-07 21:08 | 50.19017 | 14.07465 | 8583 ft | 235 kts | 306° |
| 2026-05-07 21:08 | 50.20042 | 14.05331 | 9051 ft | 257 kts | 306° |
| 2026-05-07 21:08 | 50.21155 | 14.03007 | 9543 ft | 275 kts | 306° |
| 2026-05-07 21:08 | 50.22527 | 14.00862 | 10273 ft | 284 kts | 323° |
| 2026-05-07 21:09 | 50.24289 | 13.99386 | 10965 ft | 295 kts | 339° |
| 2026-05-07 21:09 | 50.26381 | 13.98747 | 11247 ft | 321 kts | 356° |
| 2026-05-07 21:09 | 50.28693 | 13.98594 | 11527 ft | 342 kts | 356° |
| 2026-05-07 21:09 | 50.31100 | 13.98439 | 12131 ft | 350 kts | 356° |
| 2026-05-07 21:10 | 50.33557 | 13.98423 | 12856 ft | 356 kts | 4° |
| 2026-05-07 21:10 | 50.35977 | 13.99093 | 13586 ft | 362 kts | 15° |
| 2026-05-07 21:10 | 50.38339 | 14.00520 | 14283 ft | 367 kts | 24° |
| 2026-05-07 21:10 | 50.40649 | 14.02255 | 14962 ft | 370 kts | 24° |
| 2026-05-07 21:11 | 50.42980 | 14.04005 | 15646 ft | 373 kts | 24° |
| 2026-05-07 21:11 | 50.45325 | 14.05762 | 16314 ft | 376 kts | 24° |
| 2026-05-07 21:11 | 50.50079 | 14.09325 | 17639 ft | 382 kts | 24° |
| 2026-05-07 21:12 | 50.52486 | 14.11133 | 18282 ft | 385 kts | 24° |
| 2026-05-07 21:12 | 50.54940 | 14.12832 | 18833 ft | 387 kts | 18° |
| 2026-05-07 21:12 | 50.57550 | 14.13903 | 19390 ft | 388 kts | 8° |
| 2026-05-07 21:12 | 50.60219 | 14.14535 | 19942 ft | 390 kts | 7° |
| 2026-05-07 21:13 | 50.62913 | 14.15169 | 20501 ft | 392 kts | 7° |
| 2026-05-07 21:13 | 50.65621 | 14.15812 | 21048 ft | 395 kts | 7° |
| 2026-05-07 21:13 | 50.68349 | 14.16467 | 21587 ft | 398 kts | 7° |
| 2026-05-07 21:13 | 50.71094 | 14.17132 | 22109 ft | 400 kts | 7° |
| 2026-05-07 21:14 | 50.73819 | 14.17791 | 22626 ft | 403 kts | 7° |
| 2026-05-07 21:14 | 50.76595 | 14.18460 | 23137 ft | 405 kts | 7° |
| 2026-05-07 21:14 | 50.79393 | 14.19133 | 23638 ft | 408 kts | 7° |
| 2026-05-07 21:14 | 50.82206 | 14.19810 | 24054 ft | 410 kts | 8° |
| 2026-05-07 21:15 | 50.85033 | 14.20493 | 24469 ft | 413 kts | 8° |
| 2026-05-07 21:15 | 50.87885 | 14.21160 | 24866 ft | 415 kts | 5° |
| 2026-05-07 21:15 | 50.90771 | 14.21307 | 25252 ft | 417 kts | 356° |
| 2026-05-07 21:15 | 50.93653 | 14.20788 | 25636 ft | 418 kts | 352° |
| 2026-05-07 21:16 | 50.96561 | 14.20141 | 26037 ft | 421 kts | 352° |
| 2026-05-07 21:16 | 50.99461 | 14.19501 | 26427 ft | 423 kts | 352° |
| 2026-05-07 21:16 | 51.02384 | 14.18859 | 26821 ft | 425 kts | 352° |
| 2026-05-07 21:16 | 51.05318 | 14.18219 | 27204 ft | 427 kts | 352° |
| 2026-05-07 21:17 | 51.08273 | 14.17582 | 27593 ft | 429 kts | 352° |
| 2026-05-07 21:17 | 51.11240 | 14.16977 | 27969 ft | 431 kts | 352° |
| 2026-05-07 21:17 | 51.14223 | 14.16397 | 28335 ft | 433 kts | 353° |
| 2026-05-07 21:17 | 51.17224 | 14.15820 | 28678 ft | 435 kts | 353° |
| 2026-05-07 21:18 | 51.20236 | 14.15239 | 29012 ft | 437 kts | 352° |
| 2026-05-07 21:18 | 51.23261 | 14.14647 | 29341 ft | 439 kts | 352° |
| 2026-05-07 21:18 | 51.26259 | 14.14054 | 29674 ft | 441 kts | 352° |
| 2026-05-07 21:18 | 51.29305 | 14.13448 | 30006 ft | 442 kts | 352° |
| 2026-05-07 21:19 | 51.32367 | 14.12838 | 30305 ft | 444 kts | 352° |
| 2026-05-07 21:19 | 51.35426 | 14.12228 | 30637 ft | 444 kts | 352° |
| 2026-05-07 21:19 | 51.38496 | 14.11610 | 30954 ft | 445 kts | 352° |
| 2026-05-07 21:19 | 51.41557 | 14.10897 | 31246 ft | 445 kts | 350° |
| 2026-05-07 21:20 | 51.44617 | 14.10058 | 31532 ft | 446 kts | 349° |
| 2026-05-07 21:20 | 51.47670 | 14.09144 | 31843 ft | 447 kts | 348° |
| 2026-05-07 21:20 | 51.50727 | 14.08197 | 32146 ft | 448 kts | 348° |
| 2026-05-07 21:20 | 51.53790 | 14.07255 | 32453 ft | 449 kts | 348° |
| 2026-05-07 21:21 | 51.56864 | 14.06333 | 32761 ft | 450 kts | 349° |
| 2026-05-07 21:21 | 51.59951 | 14.05433 | 33063 ft | 451 kts | 349° |
| 2026-05-07 21:21 | 51.63038 | 14.04551 | 33362 ft | 452 kts | 349° |
| 2026-05-07 21:21 | 51.66135 | 14.03675 | 33660 ft | 453 kts | 349° |
| 2026-05-07 21:22 | 51.69242 | 14.02797 | 33984 ft | 453 kts | 349° |
| 2026-05-07 21:22 | 51.72354 | 14.01915 | 34260 ft | 454 kts | 349° |
| 2026-05-07 21:22 | 51.75465 | 14.01027 | 34519 ft | 455 kts | 349° |
| 2026-05-07 21:22 | 51.78582 | 14.00127 | 34782 ft | 455 kts | 349° |
| 2026-05-07 21:23 | 51.81697 | 13.99220 | 35050 ft | 455 kts | 348° |
| 2026-05-07 21:23 | 51.84831 | 13.98459 | 35306 ft | 456 kts | 354° |
| 2026-05-07 21:23 | 51.88003 | 13.98298 | 35552 ft | 457 kts | 358° |
| 2026-05-07 21:23 | 51.91186 | 13.98236 | 35789 ft | 457 kts | 358° |
| 2026-05-07 21:24 | 51.94369 | 13.98181 | 36018 ft | 458 kts | 358° |
| 2026-05-07 21:24 | 51.97555 | 13.98128 | 36247 ft | 458 kts | 358° |
| 2026-05-07 21:24 | 52.00749 | 13.98071 | 36475 ft | 459 kts | 358° |
| 2026-05-07 21:24 | 52.03938 | 13.98010 | 36707 ft | 459 kts | 358° |
| 2026-05-07 21:25 | 52.07138 | 13.97940 | 36925 ft | 459 kts | 358° |
| 2026-05-07 21:25 | 52.10290 | 13.97870 | 37125 ft | 460 kts | 358° |
| 2026-05-07 21:25 | 52.13533 | 13.97801 | 37350 ft | 460 kts | 358° |
| 2026-05-07 21:25 | 52.16692 | 13.97736 | 37560 ft | 460 kts | 358° |
| 2026-05-07 21:26 | 52.19893 | 13.97671 | 37768 ft | 461 kts | 358° |
| 2026-05-07 21:26 | 52.23101 | 13.97602 | 37971 ft | 461 kts | 358° |
| 2026-05-07 21:26 | 52.26311 | 13.97535 | 38110 ft | 462 kts | 358° |
| 2026-05-07 21:26 | 52.29528 | 13.97473 | 38126 ft | 462 kts | 358° |
| 2026-05-07 21:27 | 52.35965 | 13.97350 | 38127 ft | 462 kts | 358° |
| 2026-05-07 21:27 | 52.42401 | 13.97216 | 38137 ft | 462 kts | 358° |
| 2026-05-07 21:28 | 52.48834 | 13.97076 | 38126 ft | 462 kts | 358° |
| 2026-05-07 21:28 | 52.55266 | 13.96944 | 38130 ft | 462 kts | 358° |
| 2026-05-07 21:29 | 52.61701 | 13.96811 | 38141 ft | 463 kts | 358° |
| 2026-05-07 21:29 | 52.68141 | 13.96674 | 38146 ft | 463 kts | 358° |
| 2026-05-07 21:30 | 52.74584 | 13.96532 | 38150 ft | 463 kts | 358° |
| 2026-05-07 21:30 | 52.80981 | 13.96397 | 38151 ft | 463 kts | 358° |
| 2026-05-07 21:31 | 52.87415 | 13.96512 | 38156 ft | 464 kts | 6° |
| 2026-05-07 21:31 | 52.93595 | 13.99467 | 38156 ft | 465 kts | 26° |
| 2026-05-07 21:32 | 52.98971 | 14.05403 | 38158 ft | 465 kts | 37° |
| 2026-05-07 21:32 | 53.04166 | 14.11843 | 38154 ft | 466 kts | 36° |
| 2026-05-07 21:33 | 53.09365 | 14.18265 | 38155 ft | 466 kts | 36° |
| 2026-05-07 21:33 | 53.14570 | 14.24708 | 38160 ft | 466 kts | 36° |
| 2026-05-07 21:34 | 53.19738 | 14.31138 | 38160 ft | 466 kts | 37° |
| 2026-05-07 21:34 | 53.24924 | 14.37640 | 38155 ft | 467 kts | 37° |
| 2026-05-07 21:35 | 53.30492 | 14.43121 | 38169 ft | 465 kts | 22° |
| 2026-05-07 21:35 | 53.36435 | 14.47426 | 38168 ft | 465 kts | 23° |
| 2026-05-07 21:36 | 53.42371 | 14.51769 | 38165 ft | 466 kts | 23° |
| 2026-05-07 21:36 | 53.48309 | 14.56135 | 38169 ft | 466 kts | 23° |
| 2026-05-07 21:37 | 53.54239 | 14.60501 | 38161 ft | 466 kts | 23° |
| 2026-05-07 21:37 | 53.60180 | 14.64876 | 38161 ft | 466 kts | 23° |
| 2026-05-07 21:38 | 53.66116 | 14.69263 | 38160 ft | 466 kts | 23° |
| 2026-05-07 21:38 | 53.72051 | 14.73665 | 38166 ft | 466 kts | 23° |
| 2026-05-07 21:39 | 53.77978 | 14.78081 | 38180 ft | 466 kts | 23° |
| 2026-05-07 21:39 | 53.83905 | 14.82516 | 38187 ft | 466 kts | 23° |
| 2026-05-07 21:40 | 53.89795 | 14.86927 | 38188 ft | 466 kts | 23° |
| 2026-05-07 21:40 | 53.95761 | 14.91416 | 38184 ft | 466 kts | 23° |
| 2026-05-07 21:41 | 54.01642 | 14.95856 | 38186 ft | 466 kts | 24° |
| 2026-05-07 21:41 | 54.07568 | 15.00340 | 38188 ft | 466 kts | 24° |
| 2026-05-07 21:42 | 54.13497 | 15.04829 | 38188 ft | 466 kts | 24° |
| 2026-05-07 21:42 | 54.19418 | 15.09337 | 38188 ft | 466 kts | 24° |
| 2026-05-07 21:43 | 54.25333 | 15.13853 | 38192 ft | 466 kts | 24° |
| 2026-05-07 21:43 | 54.31252 | 15.18386 | 38190 ft | 466 kts | 24° |
| 2026-05-07 21:44 | 54.37168 | 15.22937 | 38191 ft | 466 kts | 24° |
| 2026-05-07 21:44 | 54.43084 | 15.27491 | 38195 ft | 466 kts | 24° |
| 2026-05-07 21:45 | 54.48957 | 15.32027 | 38194 ft | 466 kts | 24° |
| 2026-05-07 21:45 | 54.54866 | 15.36625 | 38198 ft | 466 kts | 24° |
| 2026-05-07 21:46 | 54.60777 | 15.41227 | 38201 ft | 466 kts | 24° |
| 2026-05-07 21:46 | 54.66684 | 15.45840 | 38202 ft | 466 kts | 24° |
| 2026-05-07 21:47 | 54.72597 | 15.50466 | 38200 ft | 466 kts | 24° |
| 2026-05-07 21:47 | 54.78500 | 15.55094 | 38201 ft | 466 kts | 24° |
| 2026-05-07 21:48 | 54.84404 | 15.59736 | 38203 ft | 466 kts | 24° |
| 2026-05-07 21:48 | 54.90303 | 15.64407 | 38204 ft | 466 kts | 24° |
| 2026-05-07 21:49 | 54.96362 | 15.68376 | 38199 ft | 465 kts | 19° |
| 2026-05-07 21:49 | 55.01445 | 15.71475 | 38203 ft | 465 kts | 19° |
| 2026-05-07 21:50 | 55.07553 | 15.75206 | 38204 ft | 465 kts | 19° |
| 2026-05-07 21:50 | 55.13664 | 15.78973 | 38207 ft | 465 kts | 19° |
| 2026-05-07 21:51 | 55.19767 | 15.82756 | 38210 ft | 465 kts | 19° |
| 2026-05-07 21:51 | 55.25873 | 15.86525 | 38209 ft | 465 kts | 19° |
| 2026-05-07 21:52 | 55.31977 | 15.90301 | 38212 ft | 465 kts | 19° |
| 2026-05-07 21:52 | 55.38069 | 15.94105 | 38210 ft | 465 kts | 19° |
| 2026-05-07 21:53 | 55.44124 | 15.97905 | 38209 ft | 465 kts | 19° |
| 2026-05-07 21:53 | 55.50218 | 16.01730 | 38207 ft | 465 kts | 19° |
| 2026-05-07 21:54 | 55.56309 | 16.05567 | 38209 ft | 465 kts | 19° |
| 2026-05-07 21:54 | 55.62399 | 16.09410 | 38211 ft | 464 kts | 19° |
| 2026-05-07 21:55 | 55.68480 | 16.13262 | 38209 ft | 464 kts | 19° |
| 2026-05-07 21:55 | 55.74560 | 16.17133 | 38215 ft | 464 kts | 19° |
| 2026-05-07 21:56 | 55.80639 | 16.21009 | 38210 ft | 464 kts | 19° |
| 2026-05-07 21:56 | 55.86710 | 16.24887 | 38215 ft | 464 kts | 19° |
| 2026-05-07 21:57 | 55.92783 | 16.28779 | 38211 ft | 464 kts | 19° |
| 2026-05-07 21:57 | 55.98848 | 16.32701 | 38212 ft | 463 kts | 19° |
| 2026-05-07 21:58 | 56.04912 | 16.36624 | 38212 ft | 463 kts | 19° |
| 2026-05-07 21:58 | 56.10976 | 16.40549 | 38212 ft | 463 kts | 19° |
| 2026-05-07 21:59 | 56.17031 | 16.44490 | 38216 ft | 463 kts | 19° |
| 2026-05-07 21:59 | 56.23087 | 16.48463 | 38217 ft | 463 kts | 19° |
| 2026-05-07 22:00 | 56.29089 | 16.52401 | 38220 ft | 463 kts | 19° |
| 2026-05-07 22:00 | 56.35146 | 16.56381 | 38221 ft | 463 kts | 19° |
| 2026-05-07 22:01 | 56.41192 | 16.60361 | 38224 ft | 463 kts | 19° |
| 2026-05-07 22:01 | 56.47232 | 16.64361 | 38225 ft | 462 kts | 19° |
| 2026-05-07 22:02 | 56.53272 | 16.68376 | 38229 ft | 462 kts | 19° |
| 2026-05-07 22:02 | 56.59313 | 16.72399 | 38230 ft | 462 kts | 19° |
| 2026-05-07 22:03 | 56.65347 | 16.76430 | 38231 ft | 462 kts | 19° |
| 2026-05-07 22:03 | 56.71346 | 16.80451 | 38229 ft | 462 kts | 19° |
| 2026-05-07 22:04 | 56.77376 | 16.84513 | 38227 ft | 462 kts | 19° |
| 2026-05-07 22:04 | 56.83399 | 16.88591 | 38211 ft | 462 kts | 19° |
| 2026-05-07 22:05 | 56.89424 | 16.92686 | 38206 ft | 461 kts | 19° |
| 2026-05-07 22:05 | 56.95442 | 16.96769 | 38210 ft | 461 kts | 19° |
| 2026-05-07 22:06 | 57.01454 | 17.00864 | 38205 ft | 461 kts | 19° |
| 2026-05-07 22:06 | 57.07464 | 17.04994 | 38212 ft | 461 kts | 19° |
| 2026-05-07 22:07 | 57.13470 | 17.09134 | 38215 ft | 461 kts | 19° |
| 2026-05-07 22:07 | 57.19478 | 17.13277 | 38222 ft | 461 kts | 19° |
| 2026-05-07 22:08 | 57.25494 | 17.17425 | 38220 ft | 462 kts | 19° |
| 2026-05-07 22:08 | 57.31467 | 17.21573 | 38226 ft | 462 kts | 19° |
| 2026-05-07 22:09 | 57.37486 | 17.25761 | 38223 ft | 462 kts | 19° |
| 2026-05-07 22:09 | 57.43505 | 17.29973 | 38227 ft | 462 kts | 19° |
| 2026-05-07 22:10 | 57.49528 | 17.34162 | 38224 ft | 461 kts | 15° |
| 2026-05-07 22:10 | 57.55755 | 17.36860 | 38227 ft | 460 kts | 9° |
| 2026-05-07 22:11 | 57.62012 | 17.39336 | 38224 ft | 460 kts | 9° |
| 2026-05-07 22:11 | 57.68280 | 17.41818 | 38232 ft | 461 kts | 9° |
| 2026-05-07 22:12 | 57.74550 | 17.44320 | 38229 ft | 461 kts | 9° |
| 2026-05-07 22:12 | 57.80826 | 17.46834 | 38225 ft | 461 kts | 9° |
| 2026-05-07 22:13 | 57.87108 | 17.49370 | 38239 ft | 462 kts | 9° |
| 2026-05-07 22:13 | 57.93390 | 17.51904 | 38244 ft | 462 kts | 9° |
| 2026-05-07 22:14 | 57.96539 | 17.53172 | 37511 ft | 463 kts | 9° |
| 2026-05-07 22:14 | 57.99725 | 17.54454 | 36477 ft | 471 kts | 9° |
| 2026-05-07 22:14 | 58.02918 | 17.55747 | 35900 ft | 465 kts | 9° |
| 2026-05-07 22:14 | 58.06059 | 17.57032 | 34801 ft | 462 kts | 9° |
| 2026-05-07 22:15 | 58.09182 | 17.58316 | 33825 ft | 454 kts | 9° |
| 2026-05-07 22:15 | 58.12217 | 17.59566 | 32803 ft | 453 kts | 9° |
| 2026-05-07 22:15 | 58.15313 | 17.60833 | 31779 ft | 458 kts | 9° |
| 2026-05-07 22:15 | 58.18439 | 17.62108 | 30758 ft | 462 kts | 8° |
| 2026-05-07 22:16 | 58.21599 | 17.63394 | 29620 ft | 467 kts | 8° |
| 2026-05-07 22:16 | 58.24752 | 17.64686 | 29073 ft | 458 kts | 8° |
| 2026-05-07 22:16 | 58.27846 | 17.65961 | 28343 ft | 453 kts | 8° |
| 2026-05-07 22:16 | 58.30905 | 17.67226 | 27650 ft | 447 kts | 8° |
| 2026-05-07 22:17 | 58.33930 | 17.68479 | 26961 ft | 443 kts | 8° |
| 2026-05-07 22:17 | 58.36929 | 17.69724 | 26292 ft | 439 kts | 8° |
| 2026-05-07 22:17 | 58.39901 | 17.70959 | 25623 ft | 435 kts | 8° |
| 2026-05-07 22:17 | 58.42847 | 17.72178 | 24972 ft | 432 kts | 8° |
| 2026-05-07 22:18 | 58.45777 | 17.73394 | 24317 ft | 429 kts | 8° |
| 2026-05-07 22:18 | 58.51579 | 17.75816 | 22976 ft | 422 kts | 8° |
| 2026-05-07 22:18 | 58.54391 | 17.76999 | 22425 ft | 416 kts | 8° |
| 2026-05-07 22:19 | 58.57198 | 17.78186 | 21861 ft | 411 kts | 8° |
| 2026-05-07 22:19 | 58.59973 | 17.79356 | 21335 ft | 405 kts | 8° |
| 2026-05-07 22:19 | 58.62708 | 17.80505 | 20817 ft | 400 kts | 8° |
| 2026-05-07 22:19 | 58.65407 | 17.81639 | 20326 ft | 395 kts | 8° |
| 2026-05-07 22:20 | 58.68075 | 17.82759 | 19836 ft | 390 kts | 8° |
| 2026-05-07 22:20 | 58.70713 | 17.83867 | 19352 ft | 386 kts | 8° |
| 2026-05-07 22:20 | 58.73326 | 17.84968 | 18859 ft | 383 kts | 8° |
| 2026-05-07 22:20 | 58.75919 | 17.86064 | 18338 ft | 380 kts | 8° |
| 2026-05-07 22:21 | 58.78488 | 17.87154 | 17807 ft | 377 kts | 9° |
| 2026-05-07 22:21 | 58.81028 | 17.88319 | 17295 ft | 375 kts | 14° |
| 2026-05-07 22:21 | 58.83443 | 17.90227 | 16981 ft | 378 kts | 23° |
| 2026-05-07 22:21 | 58.85808 | 17.92487 | 16774 ft | 380 kts | 23° |
| 2026-05-07 22:22 | 58.88176 | 17.94727 | 16524 ft | 379 kts | 23° |
| 2026-05-07 22:22 | 58.90511 | 17.96924 | 16284 ft | 377 kts | 22° |
| 2026-05-07 22:22 | 58.92866 | 17.99138 | 16045 ft | 375 kts | 23° |
| 2026-05-07 22:22 | 58.95207 | 18.01343 | 15802 ft | 374 kts | 23° |
| 2026-05-07 22:23 | 58.97544 | 18.03550 | 15565 ft | 373 kts | 23° |
| 2026-05-07 22:23 | 58.99868 | 18.05754 | 15324 ft | 371 kts | 23° |
| 2026-05-07 22:23 | 59.02183 | 18.07961 | 15085 ft | 369 kts | 23° |
| 2026-05-07 22:23 | 59.04484 | 18.10163 | 14847 ft | 368 kts | 23° |
| 2026-05-07 22:24 | 59.06773 | 18.12349 | 14607 ft | 366 kts | 23° |
| 2026-05-07 22:24 | 59.09105 | 18.14293 | 14376 ft | 362 kts | 15° |
| 2026-05-07 22:24 | 59.11542 | 18.15375 | 14138 ft | 357 kts | 4° |
| 2026-05-07 22:24 | 59.14008 | 18.15710 | 13907 ft | 355 kts | 0° |
| 2026-05-07 22:25 | 59.16470 | 18.15982 | 13659 ft | 354 kts | 1° |
| 2026-05-07 22:25 | 59.18924 | 18.16268 | 13436 ft | 352 kts | 1° |
| 2026-05-07 22:25 | 59.21366 | 18.16557 | 13213 ft | 351 kts | 1° |
| 2026-05-07 22:25 | 59.23799 | 18.16844 | 12975 ft | 349 kts | 1° |
| 2026-05-07 22:26 | 59.26218 | 18.17130 | 12762 ft | 348 kts | 1° |
| 2026-05-07 22:26 | 59.28631 | 18.17415 | 12531 ft | 347 kts | 1° |
| 2026-05-07 22:26 | 59.31033 | 18.17701 | 12314 ft | 345 kts | 1° |
| 2026-05-07 22:26 | 59.33424 | 18.17985 | 12095 ft | 344 kts | 1° |
| 2026-05-07 22:27 | 59.35811 | 18.18273 | 11863 ft | 343 kts | 1° |
| 2026-05-07 22:27 | 59.38185 | 18.18561 | 11653 ft | 341 kts | 1° |
| 2026-05-07 22:27 | 59.40551 | 18.18845 | 11427 ft | 340 kts | 1° |
| 2026-05-07 22:27 | 59.42909 | 18.19123 | 11211 ft | 339 kts | 1° |
| 2026-05-07 22:28 | 59.45231 | 18.19400 | 10993 ft | 337 kts | 1° |
| 2026-05-07 22:28 | 59.47529 | 18.19678 | 10826 ft | 324 kts | 1° |
| 2026-05-07 22:28 | 59.49729 | 18.19943 | 10707 ft | 310 kts | 1° |
| 2026-05-07 22:28 | 59.51871 | 18.20199 | 10585 ft | 298 kts | 1° |
| 2026-05-07 22:29 | 59.53874 | 18.20597 | 10444 ft | 289 kts | 8° |
| 2026-05-07 22:29 | 59.55833 | 18.21302 | 10222 ft | 283 kts | 8° |
| 2026-05-07 22:29 | 59.57769 | 18.22001 | 10163 ft | 282 kts | 8° |
| 2026-05-07 22:29 | 59.59698 | 18.22704 | 10015 ft | 281 kts | 8° |
| 2026-05-07 22:30 | 59.61623 | 18.23409 | 9876 ft | 281 kts | 8° |
| 2026-05-07 22:30 | 59.63543 | 18.24109 | 9741 ft | 280 kts | 8° |
| 2026-05-07 22:30 | 59.65456 | 18.24805 | 9598 ft | 280 kts | 8° |
| 2026-05-07 22:30 | 59.67368 | 18.25502 | 9473 ft | 279 kts | 8° |
| 2026-05-07 22:31 | 59.69276 | 18.26200 | 9340 ft | 278 kts | 8° |
| 2026-05-07 22:31 | 59.71179 | 18.26900 | 9202 ft | 278 kts | 8° |
| 2026-05-07 22:31 | 59.73077 | 18.27601 | 9066 ft | 277 kts | 8° |
| 2026-05-07 22:31 | 59.74972 | 18.28297 | 8941 ft | 277 kts | 8° |
| 2026-05-07 22:32 | 59.76866 | 18.28994 | 8606 ft | 279 kts | 9° |
| 2026-05-07 22:32 | 59.78776 | 18.29695 | 8199 ft | 277 kts | 9° |
| 2026-05-07 22:32 | 59.80680 | 18.30392 | 7702 ft | 279 kts | 9° |
| 2026-05-07 22:32 | 59.82583 | 18.30669 | 7358 ft | 272 kts | 351° |
| 2026-05-07 22:33 | 59.84352 | 18.29490 | 6926 ft | 267 kts | 329° |
| 2026-05-07 22:33 | 59.85720 | 18.27065 | 6245 ft | 264 kts | 304° |
| 2026-05-07 22:33 | 59.86453 | 18.23870 | 6014 ft | 244 kts | 283° |
| 2026-05-07 22:33 | 59.86580 | 18.20647 | 5842 ft | 227 kts | 264° |
| 2026-05-07 22:34 | 59.86180 | 18.17670 | 5424 ft | 221 kts | 246° |
| 2026-05-07 22:34 | 59.85565 | 18.14850 | 4830 ft | 224 kts | 246° |
| 2026-05-07 22:34 | 59.84936 | 18.11980 | 4200 ft | 228 kts | 245° |
| 2026-05-07 22:34 | 59.84307 | 18.09096 | 3768 ft | 223 kts | 245° |
| 2026-05-07 22:35 | 59.83708 | 18.06338 | 3573 ft | 213 kts | 245° |
| 2026-05-07 22:35 | 59.83127 | 18.03669 | 3435 ft | 207 kts | 245° |
| 2026-05-07 22:35 | 59.82556 | 18.01093 | 3323 ft | 200 kts | 240° |
| 2026-05-07 22:35 | 59.81733 | 17.98967 | 3248 ft | 191 kts | 220° |
| 2026-05-07 22:36 | 59.80625 | 17.97597 | 3086 ft | 186 kts | 200° |
| 2026-05-07 22:36 | 59.79375 | 17.97007 | 2866 ft | 184 kts | 189° |
| 2026-05-07 22:36 | 59.78127 | 17.96555 | 2622 ft | 179 kts | 190° |
| 2026-05-07 22:36 | 59.76956 | 17.96128 | 2410 ft | 167 kts | 190° |
| 2026-05-07 22:37 | 59.75862 | 17.95730 | 2195 ft | 152 kts | 190° |
| 2026-05-07 22:37 | 59.74879 | 17.95371 | 1970 ft | 137 kts | 190° |
| 2026-05-07 22:37 | 59.73964 | 17.95038 | 1778 ft | 131 kts | 190° |
| 2026-05-07 22:37 | 59.73075 | 17.94715 | 1599 ft | 129 kts | 189° |
| 2026-05-07 22:38 | 59.72191 | 17.94393 | 1425 ft | 129 kts | 190° |
| 2026-05-07 22:38 | 59.71314 | 17.94072 | 1252 ft | 128 kts | 190° |
| 2026-05-07 22:38 | 59.70437 | 17.93752 | 1037 ft | 128 kts | 189° |
| 2026-05-07 22:38 | 59.69557 | 17.93432 | 818 ft | 129 kts | 189° |
| 2026-05-07 22:39 | 59.68672 | 17.93112 | 613 ft | 129 kts | 189° |
| 2026-05-07 22:39 | 59.67785 | 17.92794 | 412 ft | 130 kts | 189° |
| 2026-05-07 22:39 | 59.66894 | 17.92474 | 222 ft | 130 kts | 189° |
| 2026-05-07 22:39 | 59.66036 | 17.92165 | 126 ft | 116 kts | 190° |
| 2026-05-07 22:40 | 59.65578 | 17.91994 | 120 ft | 76 kts | 190° |
| 2026-05-07 22:40 | 59.65284 | 17.91896 | 118 ft | 27 kts | 182° |
| 2026-05-07 22:40 | 59.65136 | 17.91935 | 116 ft | 22 kts | 166° |
| 2026-05-07 22:40 | 59.65054 | 17.91991 | 113 ft | 7 kts | 158° |
| 2026-05-07 22:41 | 59.65002 | 17.92033 | 112 ft | 10 kts | 157° |
| 2026-05-07 22:41 | 59.64964 | 17.92208 | 116 ft | 13 kts | 90° |
| 2026-05-07 22:41 | 59.64965 | 17.92367 | 114 ft | 11 kts | 89° |
| 2026-05-07 22:41 | 59.64967 | 17.92538 | 117 ft | 12 kts | 88° |
| 2026-05-07 22:42 | 59.64975 | 17.92639 | 116 ft | 6 kts | 64° |
| 2026-05-07 22:42 | 59.64995 | 17.92670 | 113 ft | 5 kts | 21° |
| 2026-05-07 22:42 | 59.65027 | 17.92682 | 116 ft | 4 kts | 9° |
| 2026-05-07 22:42 | 59.65035 | 17.92684 | 115 ft | 0 kts | 9° |